KMWO/MWO METAR and TAF weather

Enter ICAO airport designator
Station Type Date Time Source
KMWO METAR 2020/01/29 03:15 UTC NOAA

KMWO 290315Z AUTO 00000KT 10SM SCT014 OVC022 00/M01 A3012 RMK AO2 T00051012


Station Type Date Time Source
KMWO Decoded METAR 2020/01/29 03:15 UTC NOAA

Station name not available
Jan 28, 2020 - 10:15 PM EST / 2020.01.29 0315 UTC
Wind: Calm:0
Visibility: 10 mile(s):0
Sky conditions: overcast
Temperature: 32.9 F (0.5 C)
Dew Point: 29.8 F (-1.2 C)
Relative Humidity: 88%
Pressure (altimeter): 30.12 in. Hg (1019 hPa)
ob: KMWO 290315Z AUTO 00000KT 10SM SCT014 OVC022 00/M01 A3012 RMK AO2 T00051012
cycle: 3

Station Type Date Time Source
KMWO TAF UTC NOAA

Error!

Example: see airport list